Current Conditions for Chicago Metro


Midway Airport
KMDW - Chicago, Illinois, USA
Distance from station: SW 10mi, 16km
Updated: Sat, 20-Jul-2024 9:53am MDT
Mostly cloudy
Mostly cloudy
 Wind from WSW
Wind: WSW 5 mph, 7 km/h
Temperature: 79°F, 26°C
Dew Point: 54°F, 12°C
Humidity: 42%
Barometer: 30.15 inHg, 1021 hPa
Clouds: Mostly cloudy
Visibility: 10 miles, 16 km
Cloud details: Few Clouds 5000 ft
Partly cloudy 20000 ft
Mostly cloudy 25000 ft
2024/07/20 15:53 KMDW 201553Z 24004KT 10SM FEW050 SCT200 BKN250 26/12 A3015 RMK AO2 SLP201 T02560122 $

Forecast for Chicago from meteoblue

meteoblue

Images above are clickable. However, you may view Chicago forecasts in a new tab from other weather providers using this LINK.


Water Temperature at Chicago, Illinois

Source: Sea Water Temperature

Sea water temperature


Chicago Radar from National Weather Service

Radar


Chicago Satellite - GOES 16

You may need to Refresh your broswer multiple times for the image to download.


Chicago Webcam from Windy.com

Chicago › North